Portada
METAR-TAF:

METAR-TAF

Aeropuertos :

Aeropuerto de Chandigarh

Chandigarh, India

latitud: 30-40-29N, longitud: 76-47-26E, altitud: 314 m

METAR: falta

Hora: 21:48 (16:18 UTC)

Pronóstico

El informe se hizo hace 6 horas y 48 minutos, a las 09:30 UTC
Pronóstico válido del 04 a las 12 UTC al 04 a las 24 UTC
Viento 10 kt del sur-sureste
Visibilidad: 5000 m
Escasas nubes a una altura de 3000 ft
Nubes dispersas a una altura de 10000 ft
neblina
Temporalmente
del 04 a las 18 UTC al 04 a las 21 UTC
Viento 10 kt del sureste con ráfagas de 20 kt
Visibilidad: 4000 m
Nubes dispersas a una altura de 2500 ft
Escasas nubes a una altura de 3000 ft, Cumulonimbus.
Cielo nuboso a una altura de 9000 ft
lluvia ligera, neblina

TAF: VICG 040930Z 0412/0424 16010KT 5000 BR FEW030 SCT100 TEMPO 0418/0421 14010G20KT 4000 -RABR SCT025 FEW030CB BKN090

Observaciones y pronósticos meteorológicos de más de 4000 aeropuertos (mensajes METAR y TAF).

Los puntos amarillos y rojos representan las estaciones disponibles.

Ponga el ratón en el punto deseado para ver el nombre de la estación.

Haga clic para ver las observaciones y los pronósticos meteorológicos.

Para cambiar el mapa : haga clic en los botones verdes con una cruz de color negro para hacer un zoom, en el botón verde con un guión para alejar o en las flechas verdes para mapas adyacentes.


METAR-TAF: